createdAt,value
2023-04-22T00:01:53.118Z,5.37
2023-04-22T00:04:21.435Z,4.93
2023-04-22T00:06:49.121Z,5.70
2023-04-22T00:09:16.504Z,5.70
2023-04-22T00:11:43.801Z,6.40
2023-04-22T00:14:11.147Z,5.90
2023-04-22T00:16:38.954Z,4.97
2023-04-22T00:19:06.636Z,6.57
2023-04-22T00:21:34.106Z,4.53
2023-04-22T00:24:01.657Z,5.93
2023-04-22T00:26:29.180Z,5.77
2023-04-22T00:28:57.059Z,6.90
2023-04-22T00:31:24.517Z,4.97
2023-04-22T00:33:51.997Z,5.83
2023-04-22T00:36:19.488Z,5.77
2023-04-22T00:38:49.982Z,5.53
2023-04-22T00:41:17.794Z,7.63
2023-04-22T00:43:45.544Z,7.60
2023-04-22T00:46:12.943Z,6.53
2023-04-22T00:48:41.013Z,7.53
2023-04-22T00:51:08.494Z,6.57
2023-04-22T00:53:35.870Z,5.50
2023-04-22T00:56:03.303Z,6.37
2023-04-22T00:58:31.063Z,6.47
2023-04-22T01:00:59.033Z,7.93
2023-04-22T01:03:28.454Z,5.40
2023-04-22T01:05:56.991Z,6.93
2023-04-22T01:08:28.703Z,6.40
2023-04-22T01:10:56.859Z,8.40
2023-04-22T01:13:24.579Z,8.23
2023-04-22T01:15:53.858Z,6.83
2023-04-22T01:18:21.403Z,7.87
2023-04-22T01:20:48.761Z,6.63
2023-04-22T01:23:20.336Z,6.47
2023-04-22T01:25:48.279Z,5.77
2023-04-22T01:28:16.812Z,7.13
2023-04-22T01:30:44.192Z,5.20
2023-04-22T01:33:11.885Z,7.20
2023-04-22T01:35:39.633Z,7.43
2023-04-22T01:38:07.769Z,6.63
2023-04-22T01:40:35.944Z,6.40
2023-04-22T01:43:03.621Z,6.90
2023-04-22T01:45:31.425Z,6.97
2023-04-22T01:47:59.006Z,7.07
2023-04-22T01:50:26.460Z,6.37
2023-04-22T01:52:54.221Z,7.17
2023-04-22T01:55:23.031Z,6.53
2023-04-22T01:57:50.416Z,6.63
2023-04-22T02:00:18.206Z,7.40
2023-04-22T02:02:48.356Z,7.37
2023-04-22T02:05:16.117Z,7.23
2023-04-22T02:07:46.062Z,6.83
2023-04-22T02:10:16.858Z,7.50
2023-04-22T02:12:44.777Z,7.63
2023-04-22T02:15:14.708Z,5.97
2023-04-22T02:17:43.568Z,8.87
2023-04-22T02:20:13.291Z,8.83
2023-04-22T02:22:41.563Z,9.43
2023-04-22T02:25:09.565Z,8.27
2023-04-22T02:27:37.106Z,7.47
2023-04-22T02:30:04.672Z,6.80
2023-04-22T02:32:32.229Z,9.00
2023-04-22T02:35:02.024Z,7.03
2023-04-22T02:37:29.505Z,10.50
2023-04-22T02:39:56.880Z,7.43
2023-04-22T02:42:24.307Z,7.33
2023-04-22T02:44:51.642Z,7.07
2023-04-22T02:47:20.944Z,7.47
2023-04-22T02:49:49.168Z,7.93
2023-04-22T02:52:16.634Z,9.20
2023-04-22T02:54:44.034Z,6.73
2023-04-22T02:57:11.494Z,7.53
2023-04-22T02:59:39.092Z,7.47
2023-04-22T03:02:07.129Z,9.13
2023-04-22T03:04:46.138Z,7.73
2023-04-22T03:07:13.740Z,8.83
2023-04-22T03:09:41.549Z,9.57
2023-04-22T03:12:10.629Z,8.27
2023-04-22T03:14:38.027Z,9.50
2023-04-22T03:17:05.446Z,10.10
2023-04-22T03:19:33.210Z,9.50
2023-04-22T03:22:00.610Z,10.07
2023-04-22T03:24:28.044Z,8.30
2023-04-22T03:26:55.904Z,7.60
2023-04-22T03:29:23.390Z,8.93
2023-04-22T03:31:51.098Z,7.80
2023-04-22T03:34:18.786Z,9.10
2023-04-22T03:36:46.651Z,8.37
2023-04-22T03:39:14.195Z,7.80
2023-04-22T03:41:42.873Z,10.73
2023-04-22T03:44:10.625Z,8.07
2023-04-22T03:46:38.738Z,7.67
2023-04-22T03:49:15.265Z,8.33
2023-04-22T03:51:44.065Z,7.83
2023-04-22T03:54:15.606Z,8.40
2023-04-22T03:56:48.678Z,8.67
2023-04-22T03:59:16.640Z,7.57
2023-04-22T04:01:44.172Z,8.00
2023-04-22T04:04:11.844Z,8.07
2023-04-22T04:06:46.855Z,6.93
2023-04-22T04:09:14.246Z,8.67
2023-04-22T04:11:41.683Z,8.23
2023-04-22T04:14:10.236Z,7.87
2023-04-22T04:16:48.175Z,8.30
2023-04-22T04:19:24.270Z,7.80
2023-04-22T04:21:52.054Z,7.10
2023-04-22T04:24:23.642Z,7.63
2023-04-22T04:26:55.243Z,8.83
2023-04-22T04:29:28.631Z,7.03
2023-04-22T04:32:05.160Z,7.93
2023-04-22T04:34:34.356Z,6.07
2023-04-22T04:37:03.002Z,9.17
2023-04-22T04:39:40.065Z,8.53
2023-04-22T04:42:08.387Z,8.57
2023-04-22T04:44:42.862Z,7.43
2023-04-22T04:47:10.472Z,9.03
2023-04-22T04:49:40.600Z,7.03
2023-04-22T04:52:11.340Z,6.77
2023-04-22T04:54:39.249Z,9.33
2023-04-22T04:57:06.663Z,9.37
2023-04-22T04:59:34.534Z,6.40
2023-04-22T05:02:01.974Z,8.37
2023-04-22T05:04:31.319Z,6.70
2023-04-22T05:06:58.770Z,5.97
2023-04-22T05:09:26.809Z,7.60
2023-04-22T05:11:54.629Z,8.60
2023-04-22T05:14:22.527Z,8.57
2023-04-22T05:16:50.090Z,7.07
2023-04-22T05:19:17.623Z,8.47
2023-04-22T05:21:46.736Z,8.13
2023-04-22T05:24:15.030Z,7.53
2023-04-22T05:26:42.432Z,8.27
2023-04-22T05:29:15.506Z,7.40
2023-04-22T05:31:43.087Z,7.97
2023-04-22T05:34:11.867Z,8.50
2023-04-22T05:36:39.655Z,8.03
2023-04-22T05:39:08.085Z,8.87
2023-04-22T05:41:36.048Z,6.50
2023-04-22T05:44:06.335Z,10.17
2023-04-22T05:46:33.729Z,8.93
2023-04-22T05:49:01.176Z,10.50
2023-04-22T05:51:57.948Z,8.67
2023-04-22T05:54:30.655Z,8.60
2023-04-22T05:56:58.682Z,7.33
2023-04-22T05:59:26.597Z,8.43
2023-04-22T06:01:54.299Z,7.03
2023-04-22T06:04:22.129Z,6.67
2023-04-22T06:06:53.723Z,7.97
2023-04-22T06:09:21.858Z,8.60
2023-04-22T06:11:49.455Z,7.93
2023-04-22T06:14:16.877Z,7.57
2023-04-22T06:16:45.941Z,8.77
2023-04-22T06:19:13.864Z,11.50
2023-04-22T06:21:42.551Z,8.47
2023-04-22T06:24:10.835Z,8.23
2023-04-22T06:26:38.397Z,7.93
2023-04-22T06:29:06.146Z,8.47
2023-04-22T06:31:34.499Z,9.13
2023-04-22T06:34:01.911Z,6.77
2023-04-22T06:36:30.766Z,8.93
2023-04-22T06:39:02.830Z,10.13
2023-04-22T06:41:36.264Z,8.63
2023-04-22T06:44:11.557Z,8.83
2023-04-22T06:47:02.888Z,7.10
2023-04-22T06:49:47.256Z,6.17
2023-04-22T06:52:34.963Z,9.27
2023-04-22T06:55:03.607Z,8.77
2023-04-22T06:57:31.606Z,8.37
2023-04-22T06:59:59.017Z,10.50
2023-04-22T07:02:27.912Z,6.07
2023-04-22T07:04:55.675Z,10.10
2023-04-22T07:07:23.179Z,10.40
2023-04-22T07:09:50.914Z,10.57
2023-04-22T07:12:18.284Z,8.97
2023-04-22T07:14:46.072Z,8.30
2023-04-22T07:17:13.561Z,6.83
2023-04-22T07:19:41.510Z,8.93
2023-04-22T07:22:09.124Z,6.30
2023-04-22T07:24:37.486Z,8.70
2023-04-22T07:27:04.963Z,7.53
2023-04-22T07:29:32.268Z,7.83
2023-04-22T07:31:59.687Z,8.57
2023-04-22T07:34:27.055Z,8.57
2023-04-22T07:36:54.433Z,11.00
2023-04-22T07:39:23.438Z,11.77
2023-04-22T07:41:51.988Z,8.23
2023-04-22T07:44:21.664Z,9.80
2023-04-22T07:46:50.254Z,7.53
2023-04-22T07:49:17.806Z,9.97
2023-04-22T07:51:45.860Z,9.53
2023-04-22T07:54:13.482Z,9.90
2023-04-22T07:56:40.935Z,9.43
2023-04-22T07:59:08.431Z,7.60
2023-04-22T08:01:36.058Z,10.53
2023-04-22T08:04:03.868Z,8.67
2023-04-22T08:06:32.004Z,8.30
2023-04-22T08:08:59.388Z,11.07
2023-04-22T08:11:27.230Z,7.53
2023-04-22T08:13:54.951Z,8.27
2023-04-22T08:16:22.844Z,8.10
2023-04-22T08:18:52.095Z,8.67
2023-04-22T08:21:19.362Z,6.83
2023-04-22T08:23:47.077Z,8.70
2023-04-22T08:26:16.325Z,10.50
2023-04-22T08:28:44.252Z,7.43
2023-04-22T08:31:13.679Z,9.60
2023-04-22T08:33:41.835Z,8.50
2023-04-22T08:36:10.144Z,7.47
2023-04-22T08:38:38.309Z,8.63
2023-04-22T08:41:07.112Z,7.57
2023-04-22T08:43:34.650Z,7.13
2023-04-22T08:46:02.340Z,9.13
2023-04-22T08:48:29.796Z,7.67
2023-04-22T08:50:57.257Z,7.17
2023-04-22T08:53:24.972Z,6.37
2023-04-22T08:55:52.550Z,7.10
2023-04-22T08:58:20.049Z,6.23
2023-04-22T09:00:47.575Z,5.33
2023-04-22T09:03:16.643Z,6.80
2023-04-22T09:05:44.384Z,5.30
2023-04-22T09:08:12.206Z,7.07
2023-04-22T09:10:39.876Z,5.50
2023-04-22T09:13:07.639Z,8.03
2023-04-22T09:15:35.014Z,8.27
2023-04-22T09:18:05.513Z,6.50
2023-04-22T09:20:32.870Z,6.80
2023-04-22T09:23:03.960Z,6.27
2023-04-22T09:25:34.367Z,5.27
2023-04-22T09:28:02.022Z,6.17
2023-04-22T09:30:33.643Z,7.03
2023-04-22T09:33:02.583Z,7.87
2023-04-22T09:35:31.711Z,6.03
2023-04-22T09:38:01.892Z,6.97
2023-04-22T09:40:29.700Z,8.83
2023-04-22T09:42:58.688Z,6.90
2023-04-22T09:45:36.151Z,4.33
2023-04-22T09:48:13.854Z,5.87
2023-04-22T09:50:45.470Z,7.70
2023-04-22T09:53:14.586Z,6.57
2023-04-22T09:55:43.144Z,6.13
2023-04-22T09:58:11.867Z,8.73
2023-04-22T10:00:50.057Z,6.03
2023-04-22T10:03:17.852Z,4.97
2023-04-22T10:05:46.343Z,4.97
2023-04-22T10:08:14.690Z,7.90
2023-04-22T10:10:42.405Z,6.77
2023-04-22T10:13:10.734Z,5.10
2023-04-22T10:15:42.430Z,5.13
2023-04-22T10:18:13.075Z,6.13
2023-04-22T10:20:41.358Z,7.03
2023-04-22T10:23:13.762Z,5.83
2023-04-22T10:25:41.286Z,6.93
2023-04-22T10:28:10.206Z,4.60
2023-04-22T10:30:38.947Z,7.33
2023-04-22T10:33:21.904Z,4.43
2023-04-22T10:36:08.169Z,5.00
2023-04-22T10:38:36.499Z,4.37
2023-04-22T10:41:04.090Z,6.57
2023-04-22T10:43:45.255Z,4.90
2023-04-22T10:46:40.082Z,4.93
2023-04-22T10:49:08.408Z,5.43
2023-04-22T10:51:52.388Z,7.13
2023-04-22T10:54:31.989Z,7.60
2023-04-22T10:57:19.255Z,5.57
2023-04-22T10:59:52.904Z,5.63
2023-04-22T11:02:20.980Z,6.40
2023-04-22T11:04:48.683Z,5.63
2023-04-22T11:07:20.729Z,6.37
2023-04-22T11:09:50.893Z,5.47
2023-04-22T11:12:39.518Z,5.40
2023-04-22T11:15:06.999Z,6.53
2023-04-22T11:17:35.087Z,5.77
2023-04-22T11:20:02.718Z,6.50
2023-04-22T11:22:30.844Z,7.57
2023-04-22T11:24:58.755Z,6.47
2023-04-22T11:27:26.943Z,8.90
2023-04-22T11:30:15.050Z,9.53
2023-04-22T11:32:43.503Z,6.33
2023-04-22T11:35:15.148Z,5.63
2023-04-22T11:37:46.823Z,8.30
2023-04-22T11:40:28.897Z,8.50
2023-04-22T11:42:57.564Z,7.23
2023-04-22T11:45:25.842Z,8.77
2023-04-22T11:47:54.122Z,8.03
2023-04-22T11:50:23.024Z,5.93
2023-04-22T11:52:55.378Z,7.73
2023-04-22T11:55:33.671Z,7.33
2023-04-22T11:58:07.251Z,6.57
2023-04-22T12:00:54.932Z,9.10
2023-04-22T12:03:24.214Z,7.97
2023-04-22T12:05:59.351Z,7.43
2023-04-22T12:08:31.487Z,7.23
2023-04-22T12:10:59.927Z,10.07
2023-04-22T12:13:30.299Z,9.17
2023-04-22T12:16:12.034Z,7.73
2023-04-22T12:18:40.624Z,8.50
2023-04-22T12:21:08.117Z,9.07
2023-04-22T12:23:44.843Z,11.27
2023-04-22T12:26:13.032Z,9.33
2023-04-22T12:28:40.975Z,8.33
2023-04-22T12:31:09.518Z,8.50
2023-04-22T12:33:37.628Z,9.53
2023-04-22T12:36:05.459Z,10.20
2023-04-22T12:38:34.093Z,9.97
2023-04-22T12:41:02.515Z,11.57
2023-04-22T12:43:29.997Z,9.23
2023-04-22T12:45:57.456Z,8.70
2023-04-22T12:48:24.898Z,8.13
2023-04-22T12:50:52.372Z,9.17
2023-04-22T12:53:22.136Z,11.33
2023-04-22T12:55:49.880Z,11.63
2023-04-22T12:58:17.214Z,10.50
2023-04-22T13:00:44.586Z,8.63
2023-04-22T13:03:12.339Z,8.40
2023-04-22T13:05:40.251Z,11.80
2023-04-22T13:08:08.329Z,10.77
2023-04-22T13:10:36.288Z,10.13
2023-04-22T13:15:39.191Z,10.40
2023-04-22T13:18:06.966Z,9.20
2023-04-22T13:20:34.492Z,8.90
2023-04-22T13:23:02.376Z,10.10
2023-04-22T13:25:29.961Z,10.90
2023-04-22T13:27:57.335Z,10.43
2023-04-22T13:30:24.912Z,11.80
2023-04-22T13:32:52.341Z,12.03
2023-04-22T13:35:19.863Z,11.57
2023-04-22T13:37:53.135Z,9.70
2023-04-22T13:40:21.921Z,8.63
2023-04-22T13:42:51.573Z,10.07
2023-04-22T13:45:18.909Z,9.87
2023-04-22T13:47:46.292Z,12.27
2023-04-22T13:50:13.660Z,11.15
2023-04-22T13:52:41.476Z,14.17
2023-04-22T13:55:09.204Z,15.47
2023-04-22T13:57:36.643Z,13.23
2023-04-22T14:00:05.334Z,12.33
2023-04-22T14:02:39.345Z,12.33
2023-04-22T14:05:07.611Z,13.63
2023-04-22T14:07:36.216Z,13.87
2023-04-22T14:10:08.738Z,12.87
2023-04-22T14:12:36.498Z,11.00
2023-04-22T14:15:04.180Z,12.13
2023-04-22T14:17:32.025Z,11.60
2023-04-22T14:19:59.857Z,11.40
2023-04-22T14:22:27.203Z,12.47
2023-04-22T14:24:55.725Z,10.43
2023-04-22T14:27:23.163Z,12.37
2023-04-22T14:29:52.473Z,12.13
2023-04-22T14:32:20.566Z,12.20
2023-04-22T14:34:48.136Z,10.43
2023-04-22T14:37:15.599Z,11.80
2023-04-22T14:39:43.069Z,13.03
2023-04-22T14:42:11.199Z,14.37
2023-04-22T14:44:38.594Z,13.00
2023-04-22T14:47:06.193Z,10.53
2023-04-22T14:49:33.571Z,11.10
2023-04-22T14:52:01.553Z,12.30
2023-04-22T14:54:28.949Z,12.70
2023-04-22T14:56:56.601Z,10.33
2023-04-22T14:59:25.083Z,11.17
2023-04-22T15:01:52.508Z,9.63
2023-04-22T15:04:20.169Z,13.37
2023-04-22T15:06:47.545Z,11.70
2023-04-22T15:09:14.900Z,12.40
2023-04-22T15:11:42.368Z,10.87
2023-04-22T15:14:09.901Z,10.73
2023-04-22T15:16:37.597Z,12.97
2023-04-22T15:19:05.415Z,10.60
2023-04-22T15:21:33.366Z,11.60
2023-04-22T15:24:00.739Z,10.80
2023-04-22T15:26:28.264Z,11.13
2023-04-22T15:28:55.778Z,14.73
2023-04-22T15:31:23.099Z,12.50
2023-04-22T15:33:50.638Z,10.00
2023-04-22T15:36:20.980Z,10.90
2023-04-22T15:38:48.327Z,11.20
2023-04-22T15:41:16.970Z,10.83
2023-04-22T15:43:44.757Z,9.87
2023-04-22T15:46:14.526Z,9.97
2023-04-22T15:48:44.477Z,11.63
2023-04-22T15:51:12.142Z,12.13
2023-04-22T15:53:39.533Z,11.07
2023-04-22T15:56:07.169Z,11.53
2023-04-22T15:58:34.821Z,9.80
2023-04-22T16:01:15.373Z,9.77
2023-04-22T16:03:46.256Z,9.40
2023-04-22T16:06:13.859Z,7.90
2023-04-22T16:08:41.671Z,9.57
2023-04-22T16:11:09.098Z,12.50
2023-04-22T16:13:36.764Z,10.80
2023-04-22T16:16:06.774Z,11.43
2023-04-22T16:18:34.550Z,9.33
2023-04-22T16:21:02.100Z,12.87
2023-04-22T16:23:29.588Z,13.70
2023-04-22T16:25:58.441Z,10.30
2023-04-22T16:28:25.805Z,13.47
2023-04-22T16:30:53.222Z,12.53
2023-04-22T16:33:20.646Z,13.67
2023-04-22T16:35:48.022Z,11.77
2023-04-22T16:38:15.514Z,12.17
2023-04-22T16:40:42.891Z,20.80
2023-04-22T16:43:10.726Z,15.00
2023-04-22T16:45:38.267Z,11.67
2023-04-22T16:48:05.695Z,15.83
2023-04-22T16:50:33.055Z,16.63
2023-04-22T16:53:00.395Z,14.10
2023-04-22T16:55:27.751Z,12.43
2023-04-22T16:57:55.018Z,16.37
2023-04-22T17:00:24.048Z,16.83
2023-04-22T17:02:51.515Z,13.37
2023-04-22T17:05:19.273Z,12.20
2023-04-22T17:07:46.627Z,12.60
2023-04-22T17:10:14.086Z,13.93
2023-04-22T17:12:41.530Z,12.40
2023-04-22T17:15:09.853Z,13.47
2023-04-22T17:17:37.171Z,17.67
2023-04-22T17:20:06.706Z,13.30
2023-04-22T17:22:34.155Z,12.40
2023-04-22T17:25:01.547Z,13.73
2023-04-22T17:27:28.925Z,13.83
2023-04-22T17:29:56.332Z,12.60
2023-04-22T17:32:23.934Z,11.47
2023-04-22T17:34:51.265Z,14.70
2023-04-22T17:37:18.642Z,12.77
2023-04-22T17:39:45.924Z,13.17
2023-04-22T17:42:14.304Z,10.20
2023-04-22T17:44:42.088Z,9.67
2023-04-22T17:47:09.733Z,11.03
2023-04-22T17:49:37.122Z,10.07
2023-04-22T17:52:04.460Z,11.50
2023-04-22T17:54:31.928Z,10.53
2023-04-22T17:56:59.290Z,10.83
2023-04-22T17:59:26.736Z,9.90
2023-04-22T18:01:54.151Z,10.23
2023-04-22T18:04:21.815Z,9.87
2023-04-22T18:06:49.350Z,7.83
2023-04-22T18:09:17.346Z,9.93
2023-04-22T18:11:45.298Z,7.60
2023-04-22T18:14:12.806Z,9.37
2023-04-22T18:16:40.160Z,10.33
2023-04-22T18:19:07.462Z,8.83
2023-04-22T18:21:36.073Z,8.20
2023-04-22T18:24:04.394Z,6.70
2023-04-22T18:26:32.152Z,7.37
2023-04-22T18:28:59.590Z,11.40
2023-04-22T18:31:27.097Z,8.20
2023-04-22T18:33:54.490Z,9.00
2023-04-22T18:36:22.442Z,8.57
2023-04-22T18:38:49.906Z,8.27
2023-04-22T18:41:17.290Z,7.93
2023-04-22T18:43:47.251Z,8.73
2023-04-22T18:46:14.673Z,7.43
2023-04-22T18:48:42.258Z,9.03
2023-04-22T18:51:09.612Z,6.87
2023-04-22T18:53:37.268Z,6.97
2023-04-22T18:56:04.638Z,8.10
2023-04-22T18:58:31.928Z,7.83
2023-04-22T19:00:59.352Z,8.90
2023-04-22T19:03:26.876Z,8.80
2023-04-22T19:05:54.247Z,8.27
2023-04-22T19:08:21.655Z,7.70
2023-04-22T19:10:48.950Z,8.33
2023-04-22T19:13:28.687Z,8.20
2023-04-22T19:15:57.617Z,8.93
2023-04-22T19:18:24.946Z,7.17
2023-04-22T19:20:52.278Z,7.20
2023-04-22T19:23:19.652Z,7.93
2023-04-22T19:25:47.166Z,7.70
2023-04-22T19:28:14.550Z,8.47
2023-04-22T19:30:41.919Z,10.13
2023-04-22T19:33:09.328Z,10.60
2023-04-22T19:35:36.604Z,7.57
2023-04-22T19:38:03.967Z,7.33
2023-04-22T19:40:31.308Z,10.23
2023-04-22T19:42:59.169Z,8.77
2023-04-22T19:45:27.169Z,9.17
2023-04-22T19:47:54.643Z,9.73
2023-04-22T19:50:22.284Z,9.43
2023-04-22T19:52:50.771Z,8.87
2023-04-22T19:55:18.374Z,11.67
2023-04-22T19:57:46.441Z,10.93
2023-04-22T20:00:14.318Z,9.23
2023-04-22T20:02:42.486Z,10.50
2023-04-22T20:05:10.336Z,11.33
2023-04-22T20:07:38.412Z,11.03
2023-04-22T20:10:07.135Z,11.33
2023-04-22T20:12:34.774Z,11.20
2023-04-22T20:15:02.709Z,9.30
2023-04-22T20:17:31.236Z,11.93
2023-04-22T20:19:58.663Z,10.37
2023-04-22T20:22:26.173Z,9.67
2023-04-22T20:24:57.101Z,10.63
2023-04-22T20:27:25.775Z,11.93
2023-04-22T20:29:54.122Z,10.90
2023-04-22T20:32:21.521Z,10.60
2023-04-22T20:34:49.041Z,10.73
2023-04-22T20:37:19.977Z,10.13
2023-04-22T20:39:49.161Z,11.57
2023-04-22T20:42:17.108Z,11.73
2023-04-22T20:44:44.561Z,9.97
2023-04-22T20:47:11.964Z,9.83
2023-04-22T20:49:41.941Z,11.13
2023-04-22T20:52:09.660Z,10.70
2023-04-22T20:54:37.559Z,12.23
2023-04-22T20:57:06.128Z,9.77
2023-04-22T20:59:34.012Z,12.23
2023-04-22T21:02:01.646Z,11.33
2023-04-22T21:04:29.625Z,9.80
2023-04-22T21:06:58.423Z,13.70
2023-04-22T21:09:25.906Z,11.13
2023-04-22T21:11:54.649Z,12.47
2023-04-22T21:14:22.368Z,11.63
2023-04-22T21:16:57.584Z,11.17
2023-04-22T21:19:25.232Z,12.00
2023-04-22T21:21:53.697Z,13.10
2023-04-22T21:24:22.011Z,11.07
2023-04-22T21:26:49.448Z,11.10
2023-04-22T21:29:17.166Z,11.77
2023-04-22T21:31:51.586Z,12.63
2023-04-22T21:34:25.100Z,11.00
2023-04-22T21:36:52.591Z,16.67
2023-04-22T21:39:19.945Z,14.17
2023-04-22T21:41:47.248Z,11.87
2023-04-22T21:44:15.292Z,13.73
2023-04-22T21:46:42.708Z,10.97
2023-04-22T21:49:10.151Z,11.33
2023-04-22T21:51:37.901Z,14.73
2023-04-22T21:54:05.382Z,15.17
2023-04-22T21:56:33.702Z,16.20
2023-04-22T21:59:01.049Z,14.47
2023-04-22T22:01:28.425Z,10.63
2023-04-22T22:03:56.049Z,11.07
2023-04-22T22:06:23.842Z,12.03
2023-04-22T22:08:51.180Z,9.53
2023-04-22T22:11:30.308Z,12.70
2023-04-22T22:13:58.602Z,11.57
2023-04-22T22:16:26.135Z,14.20
2023-04-22T22:18:55.684Z,14.07
2023-04-22T22:21:22.957Z,12.50
2023-04-22T22:23:50.287Z,13.00
2023-04-22T22:26:17.567Z,12.10
2023-04-22T22:28:44.890Z,13.70
2023-04-22T22:31:12.229Z,16.17
2023-04-22T22:33:39.569Z,12.73
2023-04-22T22:36:06.993Z,14.53
2023-04-22T22:38:34.282Z,11.80
2023-04-22T22:41:01.659Z,12.10
2023-04-22T22:43:28.959Z,15.27
2023-04-22T22:45:56.437Z,11.67
2023-04-22T22:48:23.744Z,11.73
2023-04-22T22:50:50.968Z,12.93
2023-04-22T22:53:18.275Z,13.17
2023-04-22T22:55:45.647Z,13.63
2023-04-22T22:58:12.928Z,14.03
2023-04-22T23:00:40.333Z,13.10
2023-04-22T23:03:07.905Z,13.27
2023-04-22T23:05:35.366Z,14.43
2023-04-22T23:08:02.700Z,12.87
2023-04-22T23:10:30.230Z,13.70
2023-04-22T23:12:57.511Z,13.33
2023-04-22T23:15:24.855Z,11.67
2023-04-22T23:17:52.465Z,12.67
2023-04-22T23:20:20.437Z,15.17
2023-04-22T23:22:50.856Z,20.23
2023-04-22T23:25:18.332Z,17.10
2023-04-22T23:27:45.867Z,15.90
2023-04-22T23:30:13.557Z,16.53
2023-04-22T23:32:41.261Z,18.43
2023-04-22T23:35:09.570Z,16.13
2023-04-22T23:37:38.209Z,14.47
2023-04-22T23:40:06.880Z,13.83
2023-04-22T23:42:34.245Z,15.53
2023-04-22T23:45:01.550Z,18.80
2023-04-22T23:47:28.975Z,16.00
2023-04-22T23:49:56.471Z,16.57
2023-04-22T23:52:24.006Z,12.10
2023-04-22T23:54:52.385Z,16.17
2023-04-22T23:57:19.862Z,16.63
2023-04-22T23:59:47.325Z,15.13
